createdAt,value
2022-11-02T00:01:48.536Z,101123.91
2022-11-02T00:06:52.673Z,101126.16
2022-11-02T00:11:55.646Z,101118.66
2022-11-02T00:16:58.448Z,101107.50
2022-11-02T00:22:03.104Z,101105.69
2022-11-02T00:27:05.884Z,101109.78
2022-11-02T00:32:08.712Z,101110.47
2022-11-02T00:37:12.819Z,101095.72
2022-11-02T00:42:16.113Z,101090.22
2022-11-02T00:47:19.003Z,101086.31
2022-11-02T00:52:23.541Z,101085.16
2022-11-02T00:57:28.233Z,101074.94
2022-11-02T01:02:31.162Z,101075.38
2022-11-02T01:07:35.567Z,101071.72
2022-11-02T01:12:39.191Z,101064.59
2022-11-02T01:17:41.922Z,101064.50
2022-11-02T01:22:46.075Z,101062.59
2022-11-02T01:27:49.942Z,101049.63
2022-11-02T01:32:52.748Z,101051.44
2022-11-02T01:37:57.809Z,101051.50
2022-11-02T01:43:00.588Z,101057.63
2022-11-02T01:48:03.835Z,101044.34
2022-11-02T01:53:08.266Z,101034.28
2022-11-02T01:58:14.371Z,101023.69
2022-11-02T02:03:21.375Z,101033.78
2022-11-02T02:08:28.844Z,101035.28
2022-11-02T02:13:31.944Z,101028.69
2022-11-02T02:18:43.032Z,101018.25
2022-11-02T02:24:15.567Z,101006.16
2022-11-02T02:29:23.165Z,100995.09
2022-11-02T02:34:30.088Z,101002.06
2022-11-02T02:39:42.353Z,101004.28
2022-11-02T02:44:53.542Z,101000.16
2022-11-02T02:50:02.633Z,100995.97
2022-11-02T02:55:09.135Z,100992.19
2022-11-02T03:00:17.588Z,100988.78
2022-11-02T03:05:25.022Z,100978.38
2022-11-02T03:10:33.615Z,100972.81
2022-11-02T03:15:42.554Z,100981.19
2022-11-02T03:20:57.844Z,100985.59
2022-11-02T03:26:06.154Z,100976.22
2022-11-02T03:31:20.048Z,100966.41
2022-11-02T03:36:30.492Z,100971.41
2022-11-02T03:41:35.068Z,100967.91
2022-11-02T03:46:42.892Z,100968.91
2022-11-02T03:51:47.518Z,100963.44
2022-11-02T03:56:54.319Z,100976.59
2022-11-02T04:02:00.895Z,100989.28
2022-11-02T04:07:05.021Z,100983.13
2022-11-02T04:12:27.126Z,100980.91
2022-11-02T04:17:48.594Z,100990.38
2022-11-02T04:23:11.323Z,100994.38
2022-11-02T04:28:14.376Z,100988.31
2022-11-02T04:33:34.391Z,100991.91
2022-11-02T04:38:43.957Z,100993.28
2022-11-02T04:44:16.995Z,100990.28
2022-11-02T04:49:27.280Z,100989.19
2022-11-02T04:54:30.807Z,100992.38
2022-11-02T04:59:38.635Z,100995.28
2022-11-02T05:04:44.797Z,100996.09
2022-11-02T05:09:48.910Z,100980.81
2022-11-02T05:14:51.811Z,100996.38
2022-11-02T05:19:56.174Z,100996.16
2022-11-02T05:24:59.134Z,100996.75
2022-11-02T05:30:02.157Z,100996.78
2022-11-02T05:35:07.331Z,100988.91
2022-11-02T05:40:11.348Z,100996.84
2022-11-02T05:45:14.388Z,101002.16
2022-11-02T05:50:18.605Z,101001.03
2022-11-02T05:55:21.419Z,100991.06
2022-11-02T06:00:25.186Z,100996.38
2022-11-02T06:05:32.607Z,100999.34
2022-11-02T06:10:36.199Z,100998.09
2022-11-02T06:15:39.062Z,100982.78
2022-11-02T06:20:43.295Z,100985.09
2022-11-02T06:25:52.338Z,100996.16
2022-11-02T06:30:55.264Z,101009.34
2022-11-02T06:35:59.533Z,101013.84
2022-11-02T06:41:06.635Z,101005.88
2022-11-02T06:46:10.808Z,101015.25
2022-11-02T06:51:15.339Z,101014.72
2022-11-02T06:56:18.382Z,101013.44
2022-11-02T07:01:21.256Z,101023.41
2022-11-02T07:06:25.468Z,101021.28
2022-11-02T07:11:28.219Z,101028.91
2022-11-02T07:16:31.074Z,101033.50
2022-11-02T07:21:35.220Z,101029.31
2022-11-02T07:26:37.930Z,101033.50
2022-11-02T07:31:40.718Z,101030.28
2022-11-02T07:36:44.842Z,101042.88
2022-11-02T07:41:51.744Z,101031.47
2022-11-02T07:46:54.908Z,101033.66
2022-11-02T07:51:58.984Z,101034.22
2022-11-02T07:57:02.135Z,101035.50
2022-11-02T08:02:04.934Z,101031.34
2022-11-02T08:07:09.057Z,101036.53
2022-11-02T08:12:11.847Z,101043.69
2022-11-02T08:17:14.609Z,101041.06
2022-11-02T08:22:18.728Z,101048.38
2022-11-02T08:27:21.606Z,101050.81
2022-11-02T08:32:24.336Z,101058.75
2022-11-02T08:37:28.433Z,101068.44
2022-11-02T08:42:31.169Z,101068.44
2022-11-02T08:47:33.929Z,101063.44
2022-11-02T08:52:40.711Z,101073.69
2022-11-02T08:57:47.416Z,101087.28
2022-11-02T09:03:00.614Z,101082.38
2022-11-02T09:08:06.994Z,101090.63
2022-11-02T09:13:13.005Z,101095.19
2022-11-02T09:18:15.788Z,101093.19
2022-11-02T09:23:21.519Z,101092.22
2022-11-02T09:28:24.215Z,101100.72
2022-11-02T09:33:26.956Z,101106.69
2022-11-02T09:38:31.330Z,101104.63
2022-11-02T09:43:44.105Z,101115.03
2022-11-02T09:48:51.993Z,101105.25
2022-11-02T09:54:08.033Z,101103.63
2022-11-02T09:59:15.129Z,101111.50
2022-11-02T10:04:34.173Z,101130.63
2022-11-02T10:09:45.754Z,101133.94
2022-11-02T10:14:57.996Z,101145.31
2022-11-02T10:20:06.653Z,101153.34
2022-11-02T10:25:16.242Z,101146.75
2022-11-02T10:30:21.598Z,101157.13
2022-11-02T10:35:45.878Z,101163.41
2022-11-02T10:41:16.562Z,101156.75
2022-11-02T10:46:30.686Z,101170.69
2022-11-02T10:51:33.591Z,101169.06
2022-11-02T10:56:37.927Z,101166.31
2022-11-02T11:01:47.167Z,101174.47
2022-11-02T11:06:50.052Z,101173.13
2022-11-02T11:11:59.859Z,101193.06
2022-11-02T11:22:29.859Z,101192.94
2022-11-02T11:27:45.671Z,101213.75
2022-11-02T11:32:49.616Z,101220.34
2022-11-02T11:37:56.715Z,101224.91
2022-11-02T11:43:02.453Z,101218.34
2022-11-02T11:48:18.941Z,101231.13
2022-11-02T11:53:24.290Z,101254.47
2022-11-02T11:58:29.779Z,101275.69
2022-11-02T12:03:32.682Z,101285.13
2022-11-02T12:08:52.376Z,101277.72
2022-11-02T12:14:10.659Z,101271.34
2022-11-02T12:19:33.940Z,101271.94
2022-11-02T12:25:09.558Z,101266.38
2022-11-02T12:30:18.438Z,101278.31
2022-11-02T12:35:33.233Z,101285.00
2022-11-02T12:40:49.889Z,101293.88
2022-11-02T12:46:01.287Z,101301.94
2022-11-02T12:51:08.479Z,101315.06
2022-11-02T12:56:18.647Z,101315.50
2022-11-02T13:01:28.995Z,101312.69
2022-11-02T13:06:40.734Z,101324.47
2022-11-02T13:11:47.966Z,101326.47
2022-11-02T13:17:01.383Z,101355.34
2022-11-02T13:22:06.579Z,101383.19
2022-11-02T13:27:36.327Z,101405.56
2022-11-02T13:32:44.980Z,101407.56
2022-11-02T13:37:52.648Z,101407.97
2022-11-02T13:43:11.829Z,101417.56
2022-11-02T13:48:51.116Z,101420.34
2022-11-02T13:53:56.074Z,101423.53
2022-11-02T13:59:02.952Z,101430.00
2022-11-02T14:04:10.378Z,101410.91
2022-11-02T14:09:28.623Z,101415.38
2022-11-02T14:14:31.537Z,101428.13
2022-11-02T14:19:51.847Z,101431.06
2022-11-02T14:25:18.287Z,101426.78
2022-11-02T14:30:45.944Z,101436.81
2022-11-02T14:35:59.144Z,101440.09
2022-11-02T14:41:17.596Z,101448.56
2022-11-02T14:46:37.391Z,101454.22
2022-11-02T14:52:02.529Z,101455.69
2022-11-02T14:57:16.109Z,101451.75
2022-11-02T15:02:24.253Z,101455.56
2022-11-02T15:07:35.936Z,101462.28
2022-11-02T15:12:41.211Z,101460.34
2022-11-02T15:17:59.035Z,101449.28
2022-11-02T15:23:29.924Z,101453.75
2022-11-02T15:28:36.002Z,101459.00
2022-11-02T15:33:42.999Z,101459.75
2022-11-02T15:38:51.904Z,101456.38
2022-11-02T15:44:11.822Z,101455.00
2022-11-02T15:49:30.522Z,101464.00
2022-11-02T15:54:46.345Z,101470.41
2022-11-02T16:00:15.757Z,101477.50
2022-11-02T16:05:21.839Z,101470.59
2022-11-02T16:10:29.115Z,101474.03
2022-11-02T16:15:32.071Z,101484.41
2022-11-02T16:20:39.910Z,101487.94
2022-11-02T16:25:47.847Z,101487.81
2022-11-02T16:31:03.406Z,101492.59
2022-11-02T16:36:10.062Z,101490.72
2022-11-02T16:41:16.307Z,101492.16
2022-11-02T16:46:28.995Z,101496.41
2022-11-02T16:51:31.886Z,101490.72
2022-11-02T16:56:36.887Z,101491.25
2022-11-02T17:01:45.246Z,101493.84
2022-11-02T17:06:50.333Z,101496.34
2022-11-02T17:11:57.929Z,101498.91
2022-11-02T17:17:03.583Z,101501.09
2022-11-02T17:22:13.645Z,101497.38
2022-11-02T17:27:25.987Z,101511.56
2022-11-02T17:32:29.886Z,101515.03
2022-11-02T17:37:33.503Z,101520.88
2022-11-02T17:42:55.941Z,101521.25
2022-11-02T17:48:00.009Z,101537.69
2022-11-02T17:53:05.135Z,101525.63
2022-11-02T17:58:09.570Z,101523.03
2022-11-02T18:03:19.259Z,101523.47
2022-11-02T18:08:22.187Z,101529.25
2022-11-02T18:13:26.395Z,101530.97
2022-11-02T18:18:32.532Z,101532.53
2022-11-02T18:23:36.042Z,101527.09
2022-11-02T18:28:40.983Z,101530.19
2022-11-02T18:33:52.588Z,101523.31
2022-11-02T18:38:55.383Z,101518.16
2022-11-02T18:44:05.546Z,101528.63
2022-11-02T18:49:10.719Z,101526.06
2022-11-02T18:54:14.896Z,101508.06
2022-11-02T18:59:18.991Z,101505.88
2022-11-02T19:04:21.779Z,101504.34
2022-11-02T19:09:26.876Z,101508.06
2022-11-02T19:14:33.768Z,101508.84
2022-11-02T19:19:42.589Z,101516.59
2022-11-02T19:24:47.759Z,101514.44
2022-11-02T19:29:52.885Z,101508.84
2022-11-02T19:34:59.846Z,101496.34
2022-11-02T19:40:24.278Z,101504.97
2022-11-02T19:45:38.833Z,101501.63
2022-11-02T19:56:57.472Z,101491.44
2022-11-02T20:02:36.693Z,101485.75
2022-11-02T20:14:39.307Z,101500.47
2022-11-02T20:19:47.695Z,101491.03
2022-11-02T20:25:21.083Z,101482.13
2022-11-02T20:35:47.764Z,101475.72
2022-11-02T20:41:53.833Z,101471.59
2022-11-02T20:46:59.812Z,101462.03
2022-11-02T20:52:07.028Z,101455.44
2022-11-02T20:57:18.596Z,101456.84
2022-11-02T21:02:27.376Z,101448.63
2022-11-02T21:07:41.609Z,101456.88
2022-11-02T21:13:02.942Z,101451.22
2022-11-02T22:01:31.723Z,101432.28
2022-11-02T22:07:06.201Z,101427.47
2022-11-02T22:13:32.209Z,101426.31
2022-11-02T22:19:16.701Z,101418.16
2022-11-02T22:30:24.281Z,101413.41
2022-11-02T22:35:43.028Z,101410.97
2022-11-02T22:46:52.887Z,101401.53
2022-11-02T22:52:02.916Z,101400.91
2022-11-02T22:57:42.780Z,101398.69
2022-11-02T23:03:57.795Z,101381.41
2022-11-02T23:09:27.455Z,101389.81
2022-11-02T23:14:50.962Z,101387.34
2022-11-02T23:19:56.129Z,101374.16
2022-11-02T23:25:17.631Z,101367.47
2022-11-02T23:30:49.194Z,101363.22
2022-11-02T23:36:23.127Z,101354.44
2022-11-02T23:41:36.583Z,101349.13
2022-11-02T23:47:10.490Z,101345.25
2022-11-02T23:52:33.908Z,101335.84
2022-11-02T23:57:38.735Z,101328.22
